Time;durP1;ratioP1;P1;durP2;ratioP2;P2;SDS_P1;SDS_P2;PMS_P1;PMS_P2;Temp;Humidity;BMP_temperature;BMP_pressure;BME280_temperature;BME280_humidity;BME280_pressure;Samples;Min_cycle;Max_cycle;Signal;HPM_P1;HPM_P2
2022/12/18 00:01:05;;;;;;;14.25;8.85;;;19.80;55.50;;;;;;4983694;28;20077;-61
2022/12/18 00:03:35;;;;;;;12.13;8.75;;;19.80;55.00;;;;;;4983858;28;20023;-63
2022/12/18 00:06:01;;;;;;;13.75;9.38;;;19.90;55.10;;;;;;4983673;28;20046;-62
2022/12/18 00:08:26;;;;;;;11.07;7.38;;;19.90;54.80;;;;;;4983415;28;20043;-62
2022/12/18 00:10:52;;;;;;;12.60;8.35;;;19.90;55.10;;;;;;4983586;28;20038;-61
2022/12/18 00:13:18;;;;;;;11.93;8.55;;;19.90;54.80;;;;;;4983408;28;20035;-62
2022/12/18 00:15:44;;;;;;;14.13;9.30;;;19.90;54.90;;;;;;4983507;28;20314;-62
2022/12/18 00:18:09;;;;;;;11.65;8.25;;;19.90;54.70;;;;;;4966222;28;20635;-62
2022/12/18 00:20:36;;;;;;;10.70;7.80;;;19.90;54.60;;;;;;4983358;28;20045;-61
2022/12/18 00:23:02;;;;;;;10.45;7.90;;;19.90;55.00;;;;;;4983393;28;20030;-62
2022/12/18 00:25:28;;;;;;;16.08;9.02;;;20.00;54.80;;;;;;4983296;28;20046;-62
2022/12/18 00:27:54;;;;;;;12.82;8.52;;;20.00;54.50;;;;;;4983152;28;20019;-62
2022/12/18 00:30:20;;;;;;;12.82;8.88;;;20.00;54.60;;;;;;4983179;28;20026;-62
2022/12/18 00:32:46;;;;;;;13.45;8.50;;;19.90;55.00;;;;;;4965790;28;20042;-63
2022/12/18 00:35:11;;;;;;;11.73;7.70;;;19.80;54.90;;;;;;4983016;28;20030;-62
2022/12/18 00:37:37;;;;;;;12.43;8.50;;;19.80;55.60;;;;;;4983021;28;20061;-62
2022/12/18 00:40:03;;;;;;;12.70;8.77;;;19.80;55.10;;;;;;4982940;28;20037;-63
2022/12/18 00:45:14;;;;;;;13.68;8.73;;;19.80;55.20;;;;;;4982897;28;20030;-62
2022/12/18 00:47:39;;;;;;;12.30;7.85;;;19.80;55.10;;;;;;4982914;28;20015;-62
2022/12/18 00:50:06;;;;;;;11.85;7.88;;;19.80;55.10;;;;;;4982813;28;20038;-62
2022/12/18 00:52:32;;;;;;;12.23;8.55;;;19.80;55.70;;;;;;4982779;28;20097;-62
2022/12/18 00:54:57;;;;;;;10.63;7.95;;;19.70;54.90;;;;;;4982743;28;20041;-63
2022/12/18 00:57:23;;;;;;;14.40;9.00;;;19.80;55.00;;;;;;4982764;28;20033;-61
2022/12/18 00:59:49;;;;;;;12.65;8.38;;;19.80;54.90;;;;;;4982577;28;20074;-62
2022/12/18 01:02:15;;;;;;;11.40;8.38;;;19.70;55.00;;;;;;4982659;28;20037;-62
2022/12/18 01:04:40;;;;;;;11.65;7.55;;;19.80;54.90;;;;;;4982718;28;20061;-62
2022/12/18 01:07:06;;;;;;;15.23;10.15;;;19.80;55.30;;;;;;4981970;28;20089;-62
2022/12/18 01:09:32;;;;;;;14.35;8.90;;;19.80;54.70;;;;;;4982495;28;20030;-62
2022/12/18 01:11:58;;;;;;;14.55;8.90;;;19.80;54.80;;;;;;4982542;28;20030;-62
2022/12/18 01:14:23;;;;;;;14.10;8.35;;;19.80;54.50;;;;;;4982469;28;20113;-62
2022/12/18 01:16:49;;;;;;;10.77;8.25;;;19.80;54.60;;;;;;4982477;28;20333;-62
2022/12/18 01:19:15;;;;;;;11.90;8.90;;;19.80;54.30;;;;;;4982287;28;20023;-62
2022/12/18 01:21:40;;;;;;;13.75;8.82;;;19.80;54.30;;;;;;4982381;28;20018;-61
2022/12/18 01:24:06;;;;;;;13.40;9.18;;;19.90;54.40;;;;;;4982457;28;20031;-62
2022/12/18 01:26:32;;;;;;;12.93;9.05;;;19.90;54.50;;;;;;4982314;28;20038;-62
2022/12/18 01:28:58;;;;;;;15.70;9.48;;;19.90;54.30;;;;;;4982370;28;20019;-61
2022/12/18 01:31:26;;;;;;;12.32;8.50;;;19.90;54.20;;;;;;4982273;28;20022;-62
2022/12/18 01:33:53;;;;;;;12.73;8.38;;;19.90;54.30;;;;;;4982316;28;20041;-61
2022/12/18 01:36:23;;;;;;;13.07;8.90;;;19.90;54.60;;;;;;4964825;28;20050;-62
2022/12/18 01:38:49;;;;;;;14.40;9.10;;;19.90;54.40;;;;;;4982238;28;20325;-62
2022/12/18 01:41:17;;;;;;;13.90;8.60;;;19.90;54.70;;;;;;4982194;28;20226;-62
2022/12/18 01:43:52;;;;;;;13.32;9.60;;;19.90;54.30;;;;;;4982251;28;20353;-62
2022/12/18 01:46:19;;;;;;;14.50;8.85;;;19.80;54.50;;;;;;4982189;28;20094;-62
2022/12/18 01:48:49;;;;;;;14.85;8.77;;;19.80;54.40;;;;;;4982210;28;20397;-62
2022/12/18 01:51:15;;;;;;;12.32;8.73;;;19.80;54.50;;;;;;4982166;28;20038;-62
2022/12/18 01:53:43;;;;;;;13.13;8.52;;;19.70;55.10;;;;;;4982056;28;20027;-62
2022/12/18 01:56:14;;;;;;;12.48;7.93;;;19.70;54.80;;;;;;4982142;28;20082;-61
2022/12/18 01:59:01;;;;;;;11.93;8.43;;;19.70;54.90;;;;;;4982050;28;20043;-62
2022/12/18 02:01:29;;;;;;;13.18;8.40;;;19.70;55.00;;;;;;4981963;28;20085;-62
2022/12/18 02:03:54;;;;;;;14.57;9.20;;;19.80;54.60;;;;;;4981980;28;20019;-62
2022/12/18 02:06:38;;;;;;;12.93;8.52;;;19.70;54.90;;;;;;4981809;28;20069;-62
2022/12/18 02:09:10;;;;;;;12.85;8.20;;;19.80;54.40;;;;;;4982020;28;20038;-63
2022/12/18 02:12:03;;;;;;;13.55;9.57;;;19.70;54.60;;;;;;4981940;28;20073;-61
2022/12/18 02:14:37;;;;;;;11.90;8.20;;;19.70;54.90;;;;;;4982015;28;20019;-61
2022/12/18 02:17:25;;;;;;;12.45;8.40;;;19.70;54.80;;;;;;4964523;28;20031;-63
2022/12/18 02:20:13;;;;;;;17.63;9.40;;;19.70;54.40;;;;;;4984696;28;20344;-63
2022/12/18 02:22:57;;;;;;;;;;;19.80;54.40;;;;;;4985996;28;20022;-63
2022/12/18 02:25:58;;;;;;;12.55;8.35;;;19.80;54.40;;;;;;4985534;28;19977;-61
2022/12/18 02:28:27;;;;;;;12.15;8.63;;;19.80;53.90;;;;;;4985474;28;20070;-64
2022/12/18 02:30:56;;;;;;;13.30;8.70;;;19.80;54.20;;;;;;4985430;28;20094;-63
2022/12/18 02:33:24;;;;;;;13.85;9.35;;;19.80;54.20;;;;;;4985377;28;20045;-63
2022/12/18 02:35:52;;;;;;;12.37;8.43;;;19.80;54.00;;;;;;4985313;28;20029;-63
2022/12/18 02:38:18;;;;;;;13.50;9.35;;;19.80;54.20;;;;;;4985237;28;20099;-63
2022/12/18 02:40:45;;;;;;;14.27;8.68;;;19.80;54.20;;;;;;4985185;28;20038;-63
2022/12/18 02:43:14;;;;;;;15.40;9.25;;;19.80;54.10;;;;;;4985010;28;20027;-63
2022/12/18 02:45:57;;;;;;;12.95;8.32;;;19.80;54.30;;;;;;4985158;28;20027;-63
2022/12/18 02:48:32;;;;;;;14.90;8.55;;;19.90;54.40;;;;;;4985143;28;20065;-64
2022/12/18 02:51:24;;;;;;;13.70;9.02;;;19.80;54.30;;;;;;4985108;28;20054;-63
2022/12/18 02:53:59;;;;;;;13.90;8.93;;;19.70;54.20;;;;;;4985083;28;20022;-63
2022/12/18 02:56:50;;;;;;;13.60;9.02;;;19.70;54.30;;;;;;4984983;28;20027;-63
2022/12/18 02:59:30;;;;;;;13.77;8.40;;;19.70;54.30;;;;;;4984852;28;20089;-63
2022/12/18 03:02:02;;;;;;;11.70;8.18;;;19.70;54.80;;;;;;4984849;28;20099;-64
2022/12/18 03:04:40;;;;;;;11.63;8.30;;;19.70;54.90;;;;;;4984800;28;20082;-64
2022/12/18 03:07:15;;;;;;;11.95;8.20;;;19.70;54.40;;;;;;4984696;28;20038;-64
2022/12/18 03:09:46;;;;;;;13.30;8.68;;;19.70;54.30;;;;;;4984822;28;20066;-64
2022/12/18 03:12:23;;;;;;;11.98;8.27;;;19.70;54.10;;;;;;4984653;28;20348;-63
2022/12/18 03:14:54;;;;;;;11.70;7.80;;;19.60;54.50;;;;;;4984865;28;20027;-63
2022/12/18 03:17:22;;;;;;;11.95;8.30;;;19.60;54.70;;;;;;4984650;28;20333;-64
2022/12/18 03:19:49;;;;;;;;;;;19.70;54.30;;;;;;4984924;28;20038;-63
2022/12/18 03:22:16;;;;;;;12.10;8.05;;;19.70;54.20;;;;;;4984400;28;19910;-63
2022/12/18 03:24:42;;;;;;;11.73;8.02;;;19.70;53.90;;;;;;4984416;28;20035;-63
2022/12/18 03:27:12;;;;;;;13.23;8.38;;;19.70;54.20;;;;;;4984386;28;20026;-64
2022/12/18 03:29:46;;;;;;;12.63;8.02;;;19.80;53.80;;;;;;4984241;28;20019;-64
2022/12/18 03:32:16;;;;;;;12.45;8.32;;;19.80;53.70;;;;;;4984325;28;20031;-63
2022/12/18 03:34:46;;;;;;;11.95;8.10;;;19.70;53.80;;;;;;4984275;28;20030;-63
2022/12/18 03:37:12;;;;;;;12.35;8.35;;;19.80;53.80;;;;;;4984183;28;20031;-64
2022/12/18 03:39:38;;;;;;;12.07;8.38;;;19.80;53.90;;;;;;4984131;28;20093;-63
2022/12/18 03:42:22;;;;;;;14.68;8.65;;;19.80;53.70;;;;;;4984091;28;20073;-64
2022/12/18 03:45:20;;;;;;;12.73;8.68;;;19.80;53.80;;;;;;4984105;28;20086;-63
2022/12/18 03:47:55;;;;;;;13.20;8.80;;;19.80;53.80;;;;;;4984012;28;20022;-64
2022/12/18 03:50:42;;;;;;;13.93;9.38;;;19.80;53.50;;;;;;4984057;28;20023;-64
2022/12/18 03:53:16;;;;;;;12.15;8.55;;;19.80;54.00;;;;;;4983889;28;20037;-63
2022/12/18 03:55:42;;;;;;;10.52;7.65;;;19.70;54.20;;;;;;4983944;28;20034;-63
2022/12/18 03:58:11;;;;;;;12.18;8.55;;;19.70;54.30;;;;;;4983797;28;20203;-63
2022/12/18 04:00:37;;;;;;;;;;;19.70;54.00;;;;;;4984190;28;20314;-64
2022/12/18 04:03:05;;;;;;;11.93;8.00;;;19.70;54.30;;;;;;4983614;28;20004;-63
2022/12/18 04:05:33;;;;;;;13.27;8.38;;;19.70;54.20;;;;;;4983664;28;20026;-63
2022/12/18 04:08:00;;;;;;;12.77;8.27;;;19.70;54.30;;;;;;4983571;28;20047;-63
2022/12/18 04:10:26;;;;;;;13.32;9.23;;;19.70;54.30;;;;;;4983561;28;20035;-63
2022/12/18 04:12:56;;;;;;;11.35;8.32;;;19.60;54.30;;;;;;4983490;28;20089;-63
2022/12/18 04:15:22;;;;;;;11.95;8.05;;;19.60;54.30;;;;;;4975711;28;20077;-63
2022/12/18 04:17:49;;;;;;;12.30;8.15;;;19.60;54.50;;;;;;4983415;28;20030;-63
2022/12/18 04:20:16;;;;;;;14.80;9.05;;;19.70;54.50;;;;;;4983370;28;20031;-63
2022/12/18 04:22:42;;;;;;;12.10;8.30;;;19.60;53.90;;;;;;4983375;28;20045;-63
2022/12/18 04:25:11;;;;;;;13.07;8.10;;;19.70;54.30;;;;;;4983356;28;20097;-63
2022/12/18 04:27:37;;;;;;;13.30;8.90;;;19.70;54.10;;;;;;4983216;28;20206;-63
2022/12/18 04:30:03;;;;;;;12.82;8.90;;;19.70;53.80;;;;;;4983224;28;20023;-63
2022/12/18 04:32:29;;;;;;;12.57;8.20;;;19.70;54.10;;;;;;4983098;28;20030;-63
2022/12/18 04:34:55;;;;;;;12.65;7.57;;;19.70;53.90;;;;;;4983146;28;20091;-63
2022/12/18 04:37:20;;;;;;;14.38;9.38;;;19.70;53.70;;;;;;4983096;28;20068;-63
2022/12/18 04:39:46;;;;;;;12.98;9.50;;;19.70;53.90;;;;;;4983042;28;20030;-64
2022/12/18 04:42:12;;;;;;;13.75;8.85;;;19.70;53.70;;;;;;4982174;28;20309;-63
2022/12/18 04:44:38;;;;;;;13.18;8.40;;;19.70;53.40;;;;;;4982832;28;20094;-63
2022/12/18 04:47:04;;;;;;;12.48;8.60;;;19.80;53.30;;;;;;4982957;28;20077;-63
2022/12/18 04:49:29;;;;;;;12.73;8.65;;;19.70;53.60;;;;;;4982868;28;20336;-63
2022/12/18 04:51:55;;;;;;;12.82;8.80;;;19.70;53.70;;;;;;4982762;28;20302;-63
2022/12/18 04:54:21;;;;;;;11.85;8.05;;;19.60;54.00;;;;;;4982732;28;20027;-63
2022/12/18 04:56:47;;;;;;;12.80;8.82;;;19.50;53.90;;;;;;4982652;28;20022;-64
2022/12/18 04:59:13;;;;;;;12.63;7.57;;;19.40;54.30;;;;;;4965240;28;20184;-64
2022/12/18 05:01:39;;;;;;;13.20;8.82;;;19.30;54.70;;;;;;4982668;28;20034;-61
2022/12/18 05:04:05;;;;;;;12.90;8.63;;;19.30;54.70;;;;;;4982690;28;20219;-64
2022/12/18 05:06:31;;;;;;;11.40;8.02;;;19.20;54.90;;;;;;4982508;28;20330;-63
2022/12/18 05:08:57;;;;;;;12.80;8.82;;;19.20;54.90;;;;;;4982644;28;20030;-61
2022/12/18 05:11:23;;;;;;;12.63;8.25;;;19.20;54.70;;;;;;4982569;28;20027;-61
2022/12/18 05:13:49;;;;;;;12.65;8.93;;;19.10;54.70;;;;;;4982530;28;20065;-64
2022/12/18 05:16:15;;;;;;;12.75;8.50;;;19.10;54.60;;;;;;4982433;28;20077;-62
2022/12/18 05:18:41;;;;;;;10.98;7.72;;;19.10;54.30;;;;;;4982411;28;20338;-63
2022/12/18 05:21:07;;;;;;;11.02;7.63;;;19.20;54.40;;;;;;4982280;28;20034;-61
2022/12/18 05:23:36;;;;;;;13.40;8.68;;;19.20;54.30;;;;;;4982379;28;20392;-62
2022/12/18 05:26:04;;;;;;;11.27;7.78;;;19.30;54.20;;;;;;4982419;28;20046;-62
2022/12/18 05:28:32;;;;;;;15.05;8.85;;;19.30;54.00;;;;;;4982367;28;20042;-62
2022/12/18 05:31:00;;;;;;;13.80;8.75;;;19.40;54.10;;;;;;4982374;28;20026;-61
2022/12/18 05:33:29;;;;;;;12.02;8.55;;;19.40;54.10;;;;;;4982371;28;20030;-61
2022/12/18 05:35:58;;;;;;;14.40;8.50;;;19.40;53.90;;;;;;4982273;28;20077;-62
2022/12/18 05:38:24;;;;;;;;;;;19.40;53.90;;;;;;4982777;28;20086;-62
2022/12/18 05:40:51;;;;;;;14.50;8.57;;;19.50;54.10;;;;;;4982281;28;19941;-62
2022/12/18 05:43:18;;;;;;;14.10;9.35;;;19.50;53.90;;;;;;4982205;28;20187;-63
2022/12/18 05:45:44;;;;;;;13.80;8.25;;;19.50;54.00;;;;;;4982139;28;20027;-62
2022/12/18 05:48:13;;;;;;;13.93;8.38;;;19.50;53.80;;;;;;4982228;28;20037;-62
2022/12/18 05:50:41;;;;;;;12.95;8.68;;;19.60;53.80;;;;;;4982250;28;20050;-62
2022/12/18 05:53:07;;;;;;;11.27;7.78;;;19.60;53.60;;;;;;4984051;28;20021;-62
2022/12/18 05:55:37;;;;;;;12.68;8.32;;;19.60;53.70;;;;;;4986101;28;20034;-61
2022/12/18 05:58:05;;;;;;;13.75;8.80;;;19.50;54.50;;;;;;4985980;28;20053;-62
2022/12/18 06:00:32;;;;;;;13.13;8.52;;;19.50;54.00;;;;;;4985932;28;20034;-62
2022/12/18 06:02:58;;;;;;;10.67;8.27;;;19.50;53.90;;;;;;4986014;28;20023;-61
2022/12/18 06:05:25;;;;;;;10.73;7.78;;;19.50;54.10;;;;;;4985895;28;20019;-62
2022/12/18 06:07:50;;;;;;;13.38;8.70;;;19.50;54.00;;;;;;4985797;28;20118;-62
2022/12/18 06:10:16;;;;;;;13.02;8.95;;;19.50;53.80;;;;;;4985813;28;20022;-62
2022/12/18 06:12:42;;;;;;;11.45;7.93;;;19.50;53.80;;;;;;4968223;28;20031;-62
2022/12/18 06:15:08;;;;;;;10.05;7.78;;;19.50;53.90;;;;;;4985736;28;20022;-62
2022/12/18 06:17:35;;;;;;;11.68;8.00;;;19.50;54.10;;;;;;4985636;28;20041;-62
2022/12/18 06:20:01;;;;;;;12.30;8.73;;;19.50;53.90;;;;;;4985491;28;20213;-62
2022/12/18 06:22:27;;;;;;;13.00;8.27;;;19.50;53.80;;;;;;4985536;28;20221;-62
2022/12/18 06:24:53;;;;;;;11.38;7.80;;;19.50;53.80;;;;;;4985551;28;20337;-62
2022/12/18 06:27:19;;;;;;;12.70;8.15;;;19.50;54.20;;;;;;4985543;28;20326;-62
2022/12/18 06:29:45;;;;;;;10.35;7.60;;;19.50;54.00;;;;;;4985464;28;20245;-63
2022/12/18 06:32:11;;;;;;;11.73;7.93;;;19.50;53.90;;;;;;4985412;28;20337;-63
2022/12/18 06:34:40;;;;;;;12.27;8.02;;;19.50;54.10;;;;;;4985293;28;20033;-64
2022/12/18 06:37:05;;;;;;;11.65;8.32;;;19.50;54.20;;;;;;4985356;28;20129;-61
2022/12/18 06:39:31;;;;;;;12.50;8.50;;;19.50;53.90;;;;;;4985165;28;20029;-62
2022/12/18 06:41:57;;;;;;;10.77;7.53;;;19.60;53.60;;;;;;4985233;28;20022;-62
2022/12/18 06:44:23;;;;;;;13.88;9.02;;;19.50;53.90;;;;;;4985075;28;20034;-61
2022/12/18 06:46:49;;;;;;;13.45;8.90;;;19.50;53.80;;;;;;4985198;28;20035;-62
2022/12/18 06:49:15;;;;;;;12.50;8.30;;;19.60;53.20;;;;;;4985033;28;20023;-61
2022/12/18 06:51:42;;;;;;;12.63;8.50;;;19.60;53.50;;;;;;4984975;28;20026;-62
2022/12/18 06:54:08;;;;;;;13.85;9.05;;;19.60;53.50;;;;;;4985106;28;20091;-61
2022/12/18 06:56:34;;;;;;;13.00;8.20;;;19.60;53.50;;;;;;4984967;28;20030;-62
2022/12/18 06:59:00;;;;;;;13.95;8.45;;;19.60;53.30;;;;;;4984923;28;20081;-62
2022/12/18 07:01:26;;;;;;;14.35;8.48;;;19.70;53.30;;;;;;4984710;28;20047;-61
2022/12/18 07:03:56;;;;;;;13.30;8.70;;;19.60;53.20;;;;;;4984079;28;20076;-61
2022/12/18 07:06:24;;;;;;;13.18;9.07;;;19.60;53.30;;;;;;4984647;28;20033;-61
2022/12/18 07:08:51;;;;;;;10.88;7.88;;;19.60;53.50;;;;;;4984795;28;20081;-61
2022/12/18 07:11:18;;;;;;;12.57;8.80;;;19.60;53.70;;;;;;4984724;28;20030;-62
2022/12/18 07:13:45;;;;;;;11.23;7.38;;;19.60;53.70;;;;;;4984719;28;20209;-61
2022/12/18 07:16:19;;;;;;;12.32;8.25;;;19.60;54.00;;;;;;4984635;28;20050;-62
2022/12/18 07:18:45;;;;;;;10.80;7.85;;;19.50;54.00;;;;;;4984584;28;20035;-62
2022/12/18 07:21:14;;;;;;;12.88;8.43;;;19.50;54.20;;;;;;4984493;28;20046;-61
2022/12/18 07:23:40;;;;;;;12.05;8.05;;;19.60;53.90;;;;;;4984477;28;20027;-61
2022/12/18 07:26:11;;;;;;;10.88;7.57;;;19.50;53.60;;;;;;4984404;28;20022;-61
2022/12/18 07:28:39;;;;;;;13.15;8.65;;;19.60;53.60;;;;;;4984421;28;20250;-65
2022/12/18 07:31:15;;;;;;;11.00;7.57;;;19.60;53.70;;;;;;4984320;28;20081;-61
2022/12/18 07:33:42;;;;;;;12.10;7.72;;;19.60;53.60;;;;;;4984374;28;20033;-62
2022/12/18 07:36:09;;;;;;;12.75;8.10;;;19.50;53.80;;;;;;4984328;28;20062;-62
2022/12/18 07:38:36;;;;;;;10.07;6.38;;;19.60;53.50;;;;;;4984228;28;20050;-61
2022/12/18 07:41:13;;;;;;;11.75;7.85;;;19.60;54.30;;;;;;4984115;28;20199;-61
2022/12/18 07:43:39;;;;;;;10.38;7.28;;;19.60;53.50;;;;;;4984129;28;20040;-62
2022/12/18 07:46:06;;;;;;;11.40;8.48;;;19.60;53.50;;;;;;4984076;28;20026;-61
2022/12/18 07:48:35;;;;;;;13.00;9.45;;;19.70;53.20;;;;;;4983996;28;20019;-61
2022/12/18 07:51:02;;;;;;;11.45;8.18;;;19.70;53.00;;;;;;4983990;28;20030;-62
2022/12/18 07:53:28;;;;;;;12.27;8.82;;;19.70;53.20;;;;;;4983892;28;20101;-61
2022/12/18 07:55:58;;;;;;;13.00;8.52;;;19.70;53.20;;;;;;4983905;28;20023;-62
2022/12/18 07:58:25;;;;;;;12.23;8.18;;;19.70;53.50;;;;;;4983762;28;20033;-62
2022/12/18 08:00:52;;;;;;;14.07;9.00;;;19.80;53.10;;;;;;4983718;28;20023;-61
2022/12/18 08:03:18;;;;;;;10.60;7.38;;;19.80;53.20;;;;;;4983834;28;20057;-61
2022/12/18 08:05:44;;;;;;;11.80;8.18;;;19.80;53.30;;;;;;4983726;28;20023;-63
2022/12/18 08:08:10;;;;;;;11.50;7.88;;;19.90;52.90;;;;;;4983521;28;20286;-63
2022/12/18 08:10:37;;;;;;;11.73;8.30;;;20.00;52.70;;;;;;4983604;28;20031;-63
2022/12/18 08:13:03;;;;;;;12.35;7.93;;;20.00;52.90;;;;;;4983575;28;20380;-61
2022/12/18 08:15:29;;;;;;;11.75;7.80;;;20.00;53.00;;;;;;4983411;28;20089;-63
2022/12/18 08:17:58;;;;;;;11.75;7.80;;;19.90;53.20;;;;;;4983528;28;20026;-64
2022/12/18 08:20:23;;;;;;;10.50;7.65;;;19.80;53.70;;;;;;4983320;28;20030;-63
2022/12/18 08:22:49;;;;;;;11.15;7.47;;;19.80;53.70;;;;;;4965912;28;20026;-63
2022/12/18 08:25:15;;;;;;;65.20;19.20;;;19.70;54.00;;;;;;4983292;28;20041;-63
2022/12/18 08:27:41;;;;;;;29.27;10.77;;;19.20;44.20;;;;;;4981687;28;20085;-63
2022/12/18 08:30:07;;;;;;;17.40;9.02;;;19.20;53.10;;;;;;4983110;28;20089;-65
2022/12/18 08:32:33;;;;;;;18.80;9.82;;;19.30;53.50;;;;;;4982703;28;20046;-63
2022/12/18 08:34:59;;;;;;;26.58;9.35;;;19.40;53.40;;;;;;4982723;28;20385;-61
2022/12/18 08:37:25;;;;;;;15.43;9.40;;;19.50;53.40;;;;;;4983103;28;20037;-67
2022/12/18 08:39:51;;;;;;;43.10;10.50;;;19.50;53.50;;;;;;4993621;28;20046;-63
2022/12/18 08:45:02;;;;;;;15.02;8.35;;;19.60;53.60;;;;;;4981322;28;20022;-64
2022/12/18 08:47:28;;;;;;;25.25;7.72;;;19.50;54.00;;;;;;4982834;28;20025;-63
2022/12/18 08:49:54;;;;;;;16.83;8.35;;;19.60;53.80;;;;;;4981219;28;20023;-63
2022/12/18 08:52:19;;;;;;;18.58;8.40;;;19.70;53.60;;;;;;4981353;28;20093;-64
2022/12/18 08:54:45;;;;;;;21.35;9.43;;;19.80;53.30;;;;;;4982829;28;20027;-63
2022/12/18 08:57:11;;;;;;;19.38;8.32;;;19.90;53.20;;;;;;4982726;28;20031;-63
2022/12/18 08:59:37;;;;;;;13.38;7.88;;;19.90;52.90;;;;;;4982680;28;20052;-64
2022/12/18 09:02:02;;;;;;;18.45;8.77;;;19.90;53.00;;;;;;4982682;28;20023;-63
2022/12/18 09:04:28;;;;;;;19.13;8.73;;;20.00;53.70;;;;;;4982617;28;20348;-64
2022/12/18 09:06:55;;;;;;;18.90;11.07;;;20.20;52.90;;;;;;4982128;28;20054;-63
2022/12/18 09:09:21;;;;;;;24.00;12.45;;;20.30;51.10;;;;;;4964957;28;20049;-63
2022/12/18 09:11:47;;;;;;;21.33;11.05;;;20.20;49.80;;;;;;4982530;28;20314;-63
2022/12/18 09:14:13;;;;;;;20.45;10.52;;;20.20;50.80;;;;;;4982433;28;20207;-63
2022/12/18 09:16:39;;;;;;;15.73;9.90;;;20.20;50.50;;;;;;4982407;28;20322;-63
2022/12/18 09:19:05;;;;;;;16.63;9.45;;;20.30;51.60;;;;;;4982503;28;20026;-63
2022/12/18 09:21:34;;;;;;;18.33;10.02;;;20.30;51.60;;;;;;4982417;28;20062;-63
2022/12/18 09:24:00;;;;;;;15.73;9.48;;;20.30;51.40;;;;;;4982450;28;20023;-63
2022/12/18 09:26:26;;;;;;;16.73;10.48;;;20.40;51.50;;;;;;4982417;28;20030;-64
2022/12/18 09:28:53;;;;;;;20.23;9.38;;;20.40;51.70;;;;;;4982059;28;20022;-63
2022/12/18 09:31:21;;;;;;;19.30;9.57;;;20.40;52.00;;;;;;4982365;28;20050;-65
2022/12/18 09:33:47;;;;;;;14.93;9.75;;;20.40;51.70;;;;;;4982297;28;20027;-63
2022/12/18 09:36:15;;;;;;;15.25;9.35;;;20.50;51.60;;;;;;4982365;28;20035;-64
2022/12/18 09:38:41;;;;;;;14.18;8.70;;;20.50;51.60;;;;;;4982290;28;20082;-63
2022/12/18 09:41:35;;;;;;;22.63;9.70;;;20.60;51.80;;;;;;4982206;28;20026;-63
2022/12/18 09:44:29;;;;;;;19.08;9.50;;;20.60;51.70;;;;;;4977551;28;20030;-64
2022/12/18 09:47:23;;;;;;;16.58;9.75;;;20.50;51.30;;;;;;4982237;28;20078;-63
2022/12/18 09:49:56;;;;;;;19.08;9.75;;;20.50;52.20;;;;;;4982205;28;20031;-65
2022/12/18 09:52:29;;;;;;;14.75;9.00;;;20.40;52.30;;;;;;4982159;28;20026;-64
2022/12/18 09:54:58;;;;;;;18.00;9.07;;;20.40;52.50;;;;;;4982074;28;20334;-64
2022/12/18 09:57:25;;;;;;;16.55;9.40;;;20.40;52.80;;;;;;4981986;28;20337;-65
2022/12/18 09:59:59;;;;;;;16.13;9.25;;;20.30;52.90;;;;;;4981885;28;20027;-64
2022/12/18 10:02:26;;;;;;;15.75;9.23;;;20.30;52.80;;;;;;4981940;28;20023;-64
2022/12/18 10:05:10;;;;;;;14.38;7.30;;;20.30;52.80;;;;;;4981921;28;20018;-63
2022/12/18 10:07:57;;;;;;;15.77;8.25;;;20.30;52.90;;;;;;4981863;28;20054;-63
2022/12/18 10:10:40;;;;;;;18.23;9.65;;;20.30;53.00;;;;;;4981934;28;20018;-64
2022/12/18 10:13:38;;;;;;;15.18;9.10;;;20.30;53.10;;;;;;4981996;28;20034;-64
2022/12/18 10:16:10;;;;;;;18.63;9.35;;;20.20;53.20;;;;;;4981985;28;20015;-64
2022/12/18 10:18:57;;;;;;;15.57;10.30;;;20.20;53.20;;;;;;4981815;28;20076;-64
2022/12/18 10:21:39;;;;;;;17.15;9.02;;;20.20;51.20;;;;;;4981803;28;20130;-65
2022/12/18 10:24:36;;;;;;;13.27;8.80;;;20.20;52.70;;;;;;4981729;28;20056;-65
2022/12/18 10:27:16;;;;;;;19.23;9.65;;;20.10;53.00;;;;;;4981824;28;20027;-65
2022/12/18 10:29:46;;;;;;;17.17;9.48;;;20.00;52.70;;;;;;4981805;28;20093;-64
2022/12/18 10:32:21;;;;;;;17.38;9.43;;;20.10;53.50;;;;;;4981710;28;20027;-64
2022/12/18 10:34:49;;;;;;;18.20;9.90;;;20.00;53.40;;;;;;4981638;28;20026;-64
2022/12/18 10:37:18;;;;;;;21.08;9.50;;;20.00;53.00;;;;;;4981708;28;20055;-63
2022/12/18 10:39:45;;;;;;;25.00;14.48;;;20.00;53.50;;;;;;4982567;28;20025;-63
2022/12/18 10:42:17;;;;;;;27.60;15.07;;;19.90;43.50;;;;;;4967377;28;20019;-63
2022/12/18 10:44:44;;;;;;;15.93;10.00;;;19.10;45.00;;;;;;4981786;28;20047;-63
2022/12/18 10:47:15;;;;;;;16.95;10.43;;;19.30;51.90;;;;;;4985058;28;20052;-64
2022/12/18 10:49:52;;;;;;;15.80;9.75;;;19.50;52.70;;;;;;4984711;28;20033;-64
2022/12/18 10:52:21;;;;;;;19.02;10.07;;;19.80;52.60;;;;;;4983529;28;20019;-65
2022/12/18 10:54:55;;;;;;;17.92;9.98;;;20.00;52.00;;;;;;4980637;28;20027;-65
2022/12/18 10:57:31;;;;;;;15.07;9.32;;;20.10;52.50;;;;;;4984431;28;20105;-65
2022/12/18 10:59:59;;;;;;;16.00;9.73;;;20.30;52.60;;;;;;4983764;28;20058;-64
2022/12/18 11:02:36;;;;;;;16.38;8.73;;;20.40;52.10;;;;;;4983095;28;20035;-63
2022/12/18 11:05:22;;;;;;;21.27;10.73;;;20.40;52.50;;;;;;4965466;29;20023;-63
2022/12/18 11:07:50;;;;;;;16.15;9.20;;;20.30;53.00;;;;;;4965131;29;20269;-63
2022/12/18 11:10:18;;;;;;;14.30;9.00;;;20.30;53.10;;;;;;4965443;29;20334;-63
2022/12/18 11:12:44;;;;;;;22.02;9.63;;;20.30;53.40;;;;;;4965461;29;20031;-67
2022/12/18 11:15:40;;;;;;;19.45;9.52;;;20.20;53.70;;;;;;4965270;29;20029;-66
2022/12/18 11:18:16;;;;;;;18.17;8.70;;;20.20;53.90;;;;;;4965266;29;20063;-68
2022/12/18 11:20:42;;;;;;;19.65;10.18;;;20.30;53.90;;;;;;4965186;29;20023;-69
2022/12/18 11:23:13;;;;;;;16.63;9.20;;;20.20;54.10;;;;;;4966840;28;20039;-68
2022/12/18 11:25:39;;;;;;;20.73;9.88;;;20.20;54.40;;;;;;4981584;28;20018;-64
2022/12/18 11:28:26;;;;;;;16.02;8.95;;;20.10;54.50;;;;;;4977173;28;20214;-63
2022/12/18 11:31:18;;;;;;;19.40;9.50;;;20.10;54.50;;;;;;4973188;28;20022;-63
2022/12/18 11:34:10;;;;;;;17.40;9.60;;;20.10;54.70;;;;;;4984151;28;20030;-63
2022/12/18 11:36:50;;;;;;;18.30;9.30;;;20.00;55.50;;;;;;4983762;28;20232;-62
2022/12/18 11:39:31;;;;;;;22.00;10.35;;;20.10;54.50;;;;;;4983609;28;20041;-62
2022/12/18 11:42:09;;;;;;;24.65;8.98;;;19.90;54.30;;;;;;4982484;28;20023;-65
2022/12/18 11:44:44;;;;;;;;;;;19.90;54.80;;;;;;4983928;28;20011;-62
2022/12/18 11:47:34;;;;;;;23.40;10.38;;;20.00;54.70;;;;;;4984010;28;19924;-63
2022/12/18 11:50:02;;;;;;;21.55;10.30;;;20.10;53.70;;;;;;4983939;28;20029;-64
2022/12/18 11:52:46;;;;;;;21.73;9.52;;;20.10;53.70;;;;;;4984043;28;20034;-63
2022/12/18 11:55:15;;;;;;;22.85;10.30;;;20.20;53.80;;;;;;4983977;28;20035;-62
2022/12/18 11:57:59;;;;;;;25.90;9.50;;;20.30;53.70;;;;;;4983884;28;20031;-63
2022/12/18 12:00:25;;;;;;;19.77;10.30;;;20.40;53.70;;;;;;4983716;28;20214;-65
2022/12/18 12:03:06;;;;;;;24.42;10.85;;;20.40;53.80;;;;;;4984054;28;20037;-63
2022/12/18 12:05:48;;;;;;;21.55;9.18;;;20.40;54.00;;;;;;4983763;28;20042;-62
2022/12/18 12:09:00;;;;;;;16.17;8.75;;;20.40;53.80;;;;;;4983542;28;20062;-63
2022/12/18 12:11:49;;;;;;;17.15;9.90;;;20.50;53.90;;;;;;4983638;28;20015;-63
2022/12/18 12:14:36;;;;;;;18.52;9.10;;;20.50;54.00;;;;;;4983610;28;20030;-63
2022/12/18 12:17:10;;;;;;;27.42;9.65;;;20.50;53.80;;;;;;4983554;28;20027;-63
2022/12/18 12:19:54;;;;;;;19.13;8.88;;;20.60;53.80;;;;;;4983433;28;20023;-61
2022/12/18 12:22:38;;;;;;;20.08;9.43;;;20.60;54.00;;;;;;4983441;28;20026;-61
2022/12/18 12:25:25;;;;;;;18.67;9.05;;;20.60;54.20;;;;;;4966030;28;20030;-63
2022/12/18 12:28:05;;;;;;;26.40;10.10;;;20.50;54.30;;;;;;4983332;28;20087;-62
2022/12/18 12:31:21;;;;;;;18.00;9.23;;;20.50;54.60;;;;;;4983270;28;20041;-61
2022/12/18 12:34:28;;;;;;;20.88;9.85;;;20.40;54.70;;;;;;4960866;28;20038;-61
2022/12/18 12:37:12;;;;;;;16.73;8.50;;;20.50;54.70;;;;;;4983174;28;20015;-61
2022/12/18 12:39:42;;;;;;;18.48;9.80;;;20.60;54.50;;;;;;4982379;28;20097;-61
2022/12/18 12:45:38;;;;;;;29.40;12.20;;;20.70;53.30;;;;;;4977770;28;20307;-65
2022/12/18 12:48:10;;;;;;;26.52;11.48;;;20.70;50.60;;;;;;4982454;28;20019;-63
2022/12/18 12:50:37;;;;;;;28.85;11.38;;;20.60;49.30;;;;;;4981835;28;20033;-61
2022/12/18 12:53:09;;;;;;;20.92;10.63;;;20.80;49.80;;;;;;4982427;28;20286;-61
2022/12/18 12:55:35;;;;;;;29.40;12.75;;;21.00;48.00;;;;;;4982407;28;20133;-61
2022/12/18 12:58:36;;;;;;;30.40;12.23;;;21.10;47.30;;;;;;4981419;28;20038;-60
2022/12/18 13:01:14;;;;;;;21.52;11.88;;;21.40;46.70;;;;;;4953915;28;20081;-61
2022/12/18 13:03:56;;;;;;;19.90;9.95;;;21.70;45.80;;;;;;4981034;28;20058;-62
2022/12/18 13:06:30;;;;;;;24.65;11.10;;;21.90;47.70;;;;;;4982794;28;20085;-61